Terminal Aerodrome Forecast
Issued by NWS Sioux Falls, SD

Home | Current Version | Previous Version | Text Only | Print | Product List | Glossary On
Versions: 1 2 3 4 5 6 7 8 9 10 11 12 13 14 15
000
FTUS43 KFSD 242300
TAFHON
TAF
KHON 242336Z 2500/2524 30016G24KT P6SM FEW100
     FM250100 30008KT P6SM SKC
     FM250600 VRB03KT P6SM BKN100
     FM251600 28007KT P6SM FEW250=

USA.gov is the U.S. government's official web portal to all federal, state and local government web resources and services.